createdAt,value
2022-11-26T00:01:38.933Z,5.09
2022-11-26T00:04:40.609Z,5.08
2022-11-26T00:07:44.399Z,5.10
2022-11-26T00:10:46.625Z,5.12
2022-11-26T00:13:48.322Z,5.15
2022-11-26T00:16:51.565Z,5.15
2022-11-26T00:19:53.275Z,5.19
2022-11-26T00:22:56.268Z,5.13
2022-11-26T00:25:59.519Z,5.10
2022-11-26T00:29:01.308Z,5.08
2022-11-26T00:32:05.944Z,5.09
2022-11-26T00:35:08.041Z,5.10
2022-11-26T00:38:13.099Z,5.17
2022-11-26T00:41:17.015Z,5.03
2022-11-26T00:44:19.421Z,5.04
2022-11-26T00:47:22.405Z,4.92
2022-11-26T00:50:24.852Z,5.03
2022-11-26T00:53:26.500Z,5.05
2022-11-26T00:56:30.789Z,4.92
2022-11-26T00:59:35.515Z,4.98
2022-11-26T01:02:38.623Z,4.99
2022-11-26T01:05:40.336Z,5.06
2022-11-26T01:08:42.925Z,5.02
2022-11-26T01:11:44.613Z,4.92
2022-11-26T01:14:46.367Z,4.93
2022-11-26T01:17:49.634Z,4.91
2022-11-26T01:20:51.331Z,4.87
2022-11-26T01:23:52.934Z,4.89
2022-11-26T01:26:54.658Z,4.82
2022-11-26T01:29:56.380Z,4.84
2022-11-26T01:32:59.579Z,4.87
2022-11-26T01:36:01.430Z,4.83
2022-11-26T01:39:04.223Z,4.79
2022-11-26T01:42:07.242Z,4.87
2022-11-26T01:45:14.320Z,4.79
2022-11-26T01:48:28.156Z,4.75
2022-11-26T01:51:29.759Z,4.83
2022-11-26T01:54:32.477Z,4.82
2022-11-26T01:57:34.135Z,4.87
2022-11-26T02:00:35.926Z,4.80
2022-11-26T02:03:43.470Z,4.74
2022-11-26T02:06:46.848Z,4.75
2022-11-26T02:09:49.003Z,4.68
2022-11-26T02:12:51.165Z,4.78
2022-11-26T02:15:57.324Z,4.70
2022-11-26T02:19:15.336Z,4.62
2022-11-26T02:22:26.591Z,4.62
2022-11-26T02:25:35.776Z,4.62
2022-11-26T02:28:52.565Z,4.60
2022-11-26T02:31:59.717Z,4.50
2022-11-26T02:35:03.834Z,4.58
2022-11-26T02:38:06.826Z,4.54
2022-11-26T02:41:20.564Z,4.62
2022-11-26T02:44:23.897Z,4.68
2022-11-26T02:47:28.470Z,4.64
2022-11-26T02:50:32.556Z,4.62
2022-11-26T02:53:34.801Z,4.61
2022-11-26T02:56:37.252Z,4.65
2022-11-26T02:59:39.681Z,4.58
2022-11-26T03:02:45.110Z,4.60
2022-11-26T03:05:46.899Z,4.46
2022-11-26T03:08:48.923Z,4.48
2022-11-26T03:11:50.814Z,4.50
2022-11-26T03:14:52.578Z,4.54
2022-11-26T03:17:55.631Z,4.55
2022-11-26T03:20:57.276Z,4.55
2022-11-26T03:23:58.950Z,4.46
2022-11-26T03:27:00.613Z,4.47
2022-11-26T03:30:02.326Z,4.43
2022-11-26T03:33:05.409Z,4.43
2022-11-26T03:36:07.360Z,4.41
2022-11-26T03:39:09.067Z,4.50
2022-11-26T03:42:10.714Z,4.46
2022-11-26T03:45:12.640Z,4.56
2022-11-26T03:48:15.740Z,4.51
2022-11-26T03:51:17.472Z,4.50
2022-11-26T03:54:19.115Z,4.51
2022-11-26T03:57:20.797Z,4.44
2022-11-26T04:00:22.498Z,4.48
2022-11-26T04:03:25.688Z,4.40
2022-11-26T04:06:27.524Z,4.43
2022-11-26T04:09:29.222Z,4.39
2022-11-26T04:12:30.927Z,4.35
2022-11-26T04:15:32.623Z,4.42
2022-11-26T04:18:35.703Z,4.38
2022-11-26T04:21:37.391Z,4.40
2022-11-26T04:24:39.218Z,4.43
2022-11-26T04:27:41.113Z,4.43
2022-11-26T04:30:43.257Z,4.44
2022-11-26T04:33:46.573Z,4.40
2022-11-26T04:36:48.229Z,4.49
2022-11-26T04:39:49.926Z,4.42
2022-11-26T04:42:51.572Z,4.46
2022-11-26T04:45:53.344Z,4.42
2022-11-26T04:48:56.473Z,4.50
2022-11-26T04:51:58.189Z,4.59
2022-11-26T04:54:59.882Z,4.54
2022-11-26T04:58:01.897Z,4.66
2022-11-26T05:01:03.641Z,4.56
2022-11-26T05:04:06.790Z,4.55
2022-11-26T05:07:08.539Z,4.51
2022-11-26T05:10:10.797Z,4.54
2022-11-26T05:13:12.436Z,4.59
2022-11-26T05:16:14.178Z,4.61
2022-11-26T05:19:17.628Z,4.58
2022-11-26T05:22:19.284Z,4.67
2022-11-26T05:25:20.947Z,4.70
2022-11-26T05:28:22.615Z,4.67
2022-11-26T05:31:24.687Z,4.72
2022-11-26T05:34:27.807Z,4.69
2022-11-26T05:37:29.548Z,4.66
2022-11-26T05:40:31.262Z,4.68
2022-11-26T05:43:34.430Z,4.58
2022-11-26T05:46:36.771Z,4.58
2022-11-26T05:49:40.168Z,4.55
2022-11-26T05:52:41.920Z,4.55
2022-11-26T05:55:43.602Z,4.51
2022-11-26T05:58:45.237Z,4.48
2022-11-26T06:01:46.986Z,4.44
2022-11-26T06:04:50.145Z,4.43
2022-11-26T06:07:51.909Z,4.26
2022-11-26T06:10:53.738Z,4.27
2022-11-26T06:13:55.443Z,4.24
2022-11-26T06:16:57.328Z,4.24
2022-11-26T06:20:00.506Z,4.27
2022-11-26T06:23:02.207Z,4.34
2022-11-26T06:26:06.955Z,4.31
2022-11-26T06:29:08.669Z,4.48
2022-11-26T06:32:10.429Z,4.45
2022-11-26T06:35:13.572Z,4.47
2022-11-26T06:38:15.249Z,4.47
2022-11-26T06:41:16.944Z,4.43
2022-11-26T06:44:18.600Z,4.42
2022-11-26T06:47:20.248Z,4.44
2022-11-26T06:50:23.623Z,4.46
2022-11-26T06:53:25.319Z,4.53
2022-11-26T06:56:27.062Z,4.57
2022-11-26T06:59:28.819Z,4.59
2022-11-26T07:02:30.604Z,4.60
2022-11-26T07:05:35.204Z,4.60
2022-11-26T07:08:37.993Z,4.59
2022-11-26T07:11:40.459Z,4.76
2022-11-26T07:14:42.713Z,4.62
2022-11-26T07:17:44.422Z,4.62
2022-11-26T07:20:47.521Z,4.67
2022-11-26T07:23:49.937Z,4.75
2022-11-26T07:26:51.677Z,4.72
2022-11-26T07:29:53.381Z,4.70
2022-11-26T07:32:55.072Z,4.77
2022-11-26T07:36:00.044Z,4.86
2022-11-26T07:39:02.135Z,4.78
2022-11-26T07:42:03.991Z,4.79
2022-11-26T07:45:06.219Z,4.93
2022-11-26T07:48:09.512Z,4.87
2022-11-26T07:51:17.470Z,4.75
2022-11-26T07:54:19.189Z,4.86
2022-11-26T07:57:20.936Z,4.87
2022-11-26T08:00:22.806Z,4.82
2022-11-26T08:03:24.467Z,4.80
2022-11-26T08:06:28.570Z,4.92
2022-11-26T08:09:30.415Z,4.75
2022-11-26T08:12:32.218Z,4.77
2022-11-26T08:15:33.813Z,4.86
2022-11-26T08:18:35.700Z,4.88
2022-11-26T08:21:38.739Z,4.85
2022-11-26T08:24:40.653Z,4.89
2022-11-26T08:27:42.388Z,4.83
2022-11-26T08:30:44.365Z,4.93
2022-11-26T08:33:46.273Z,4.87
2022-11-26T08:36:49.304Z,4.93
2022-11-26T08:39:50.948Z,4.89
2022-11-26T08:42:52.593Z,4.90
2022-11-26T08:45:54.534Z,4.86
2022-11-26T08:48:56.386Z,4.81
2022-11-26T08:51:59.417Z,4.70
2022-11-26T08:55:01.015Z,4.74
2022-11-26T08:58:02.723Z,4.73
2022-11-26T09:01:07.802Z,4.82
2022-11-26T09:04:09.516Z,4.84
2022-11-26T09:07:12.840Z,4.78
2022-11-26T09:10:14.841Z,4.78
2022-11-26T09:13:20.929Z,4.78
2022-11-26T09:16:22.996Z,4.80
2022-11-26T09:19:25.185Z,4.87
2022-11-26T09:22:28.202Z,4.89
2022-11-26T09:25:29.947Z,5.01
2022-11-26T09:28:31.568Z,5.03
2022-11-26T09:31:33.311Z,4.96
2022-11-26T09:34:35.051Z,5.07
2022-11-26T09:37:38.114Z,5.02
2022-11-26T09:40:46.511Z,5.10
2022-11-26T09:43:56.931Z,4.97
2022-11-26T09:47:12.541Z,5.09
2022-11-26T09:50:21.010Z,5.09
2022-11-26T09:53:25.821Z,5.11
2022-11-26T09:56:27.468Z,5.12
2022-11-26T09:59:29.682Z,5.15
2022-11-26T10:02:31.434Z,5.21
2022-11-26T10:05:44.467Z,5.24
2022-11-26T10:09:06.980Z,5.24
2022-11-26T10:12:25.004Z,5.25
2022-11-26T10:15:31.285Z,5.34
2022-11-26T10:18:37.451Z,5.40
2022-11-26T10:25:03.787Z,5.39
2022-11-26T10:28:16.448Z,5.42
2022-11-26T10:31:20.255Z,5.53
2022-11-26T10:34:28.362Z,5.57
2022-11-26T10:37:31.063Z,5.59
2022-11-26T10:40:33.045Z,5.70
2022-11-26T10:43:36.060Z,5.80
2022-11-26T10:46:37.914Z,5.77
2022-11-26T10:49:39.558Z,5.80
2022-11-26T10:52:41.330Z,5.85
2022-11-26T10:55:43.540Z,5.87
2022-11-26T10:58:47.968Z,5.80
2022-11-26T11:01:51.625Z,5.78
2022-11-26T11:04:57.464Z,5.69
2022-11-26T11:07:59.168Z,5.73
2022-11-26T11:11:01.802Z,5.66
2022-11-26T11:14:04.819Z,5.61
2022-11-26T11:17:06.928Z,5.54
2022-11-26T11:20:25.792Z,5.53
2022-11-26T11:23:46.082Z,5.46
2022-11-26T11:26:51.408Z,5.50
2022-11-26T11:29:59.664Z,5.40
2022-11-26T11:33:10.285Z,5.39
2022-11-26T11:36:29.546Z,5.29
2022-11-26T11:39:32.886Z,5.28
2022-11-26T11:42:34.523Z,5.21
2022-11-26T11:45:40.649Z,5.20
2022-11-26T11:48:48.441Z,5.24
2022-11-26T11:51:58.207Z,5.18
2022-11-26T11:55:03.915Z,5.29
2022-11-26T11:58:15.144Z,5.25
2022-11-26T12:01:25.298Z,5.35
2022-11-26T12:04:39.792Z,5.29
2022-11-26T12:07:46.278Z,5.44
2022-11-26T12:10:53.131Z,5.27
2022-11-26T12:13:56.041Z,5.28
2022-11-26T12:17:03.264Z,5.45
2022-11-26T12:20:07.631Z,5.35
2022-11-26T12:23:23.011Z,5.50
2022-11-26T12:26:28.606Z,5.58
2022-11-26T12:29:34.114Z,5.65
2022-11-26T12:32:40.989Z,5.52
2022-11-26T12:35:45.033Z,5.64
2022-11-26T12:38:51.183Z,5.74
2022-11-26T12:41:55.194Z,5.78
2022-11-26T12:45:02.295Z,5.89
2022-11-26T12:48:10.511Z,5.97
2022-11-26T12:51:20.084Z,6.04
2022-11-26T12:54:24.827Z,6.00
2022-11-26T12:57:29.960Z,5.95
2022-11-26T13:00:36.031Z,5.87
2022-11-26T13:03:40.972Z,5.83
2022-11-26T13:07:00.414Z,5.78
2022-11-26T13:10:10.127Z,5.80
2022-11-26T13:13:17.763Z,5.71
2022-11-26T13:16:23.540Z,5.74
2022-11-26T13:19:31.080Z,5.77
2022-11-26T13:22:45.847Z,5.74
2022-11-26T13:26:05.364Z,5.70
2022-11-26T13:29:24.160Z,5.74
2022-11-26T13:32:40.693Z,5.72
2022-11-26T13:36:00.086Z,5.67
2022-11-26T13:39:11.629Z,5.67
2022-11-26T13:42:29.138Z,5.77
2022-11-26T13:45:54.780Z,5.82
2022-11-26T13:48:59.493Z,5.75
2022-11-26T13:52:04.249Z,5.82
2022-11-26T13:55:11.098Z,5.66
2022-11-26T13:58:16.493Z,5.64
2022-11-26T14:01:28.401Z,5.66
2022-11-26T14:04:48.726Z,5.69
2022-11-26T14:07:50.526Z,5.59
2022-11-26T14:10:53.651Z,5.62
2022-11-26T14:14:28.736Z,5.56
2022-11-26T14:17:35.081Z,5.63
2022-11-26T14:20:51.788Z,5.74
2022-11-26T14:23:54.483Z,5.70
2022-11-26T14:26:57.603Z,5.77
2022-11-26T14:30:01.287Z,5.71
2022-11-26T14:33:10.437Z,5.69
2022-11-26T14:36:19.284Z,5.66
2022-11-26T14:39:21.051Z,5.64
2022-11-26T14:42:24.148Z,5.75
2022-11-26T14:45:26.143Z,5.61
2022-11-26T14:48:28.682Z,5.58
2022-11-26T14:51:31.827Z,5.49
2022-11-26T14:54:35.136Z,5.51
2022-11-26T14:57:42.429Z,5.53
2022-11-26T15:00:44.336Z,5.42
2022-11-26T15:03:53.490Z,5.43
2022-11-26T15:06:55.298Z,5.53
2022-11-26T15:10:00.549Z,5.54
2022-11-26T15:13:06.139Z,5.41
2022-11-26T15:16:25.430Z,5.48
2022-11-26T15:19:27.805Z,5.33
2022-11-26T15:22:33.586Z,5.38
2022-11-26T15:25:35.522Z,5.37
2022-11-26T15:28:39.007Z,5.49
2022-11-26T15:31:41.187Z,5.42
2022-11-26T15:34:42.938Z,5.49
2022-11-26T15:37:44.540Z,5.46
2022-11-26T15:40:47.550Z,5.39
2022-11-26T15:43:52.305Z,5.42
2022-11-26T15:46:55.705Z,5.43
2022-11-26T15:49:59.439Z,5.37
2022-11-26T15:53:04.200Z,5.37
2022-11-26T15:56:08.321Z,5.31
2022-11-26T15:59:15.348Z,5.35
2022-11-26T16:02:18.913Z,5.29
2022-11-26T16:05:26.602Z,5.26
2022-11-26T16:08:30.345Z,5.32
2022-11-26T16:11:32.632Z,5.30
2022-11-26T16:14:37.158Z,5.30
2022-11-26T16:17:39.356Z,5.25
2022-11-26T16:20:41.051Z,5.26
2022-11-26T16:23:42.790Z,5.32
2022-11-26T16:26:54.752Z,5.34
2022-11-26T16:29:58.631Z,5.24
2022-11-26T16:33:00.377Z,5.23
2022-11-26T16:36:05.765Z,5.35
2022-11-26T16:39:08.742Z,5.36
2022-11-26T16:42:14.099Z,5.37
2022-11-26T16:45:17.835Z,5.44
2022-11-26T16:48:23.125Z,5.41
2022-11-26T16:51:25.072Z,5.41
2022-11-26T16:54:26.810Z,5.40
2022-11-26T16:57:29.434Z,5.46
2022-11-26T17:00:34.906Z,5.46
2022-11-26T17:03:36.805Z,5.45
2022-11-26T17:06:39.201Z,5.48
2022-11-26T17:09:41.343Z,5.44
2022-11-26T17:12:44.002Z,5.46
2022-11-26T17:15:47.435Z,5.44
2022-11-26T17:18:49.773Z,5.36
2022-11-26T17:21:51.783Z,5.36
2022-11-26T17:24:53.632Z,5.35
2022-11-26T17:27:55.614Z,5.26
2022-11-26T17:30:58.612Z,5.25
2022-11-26T17:34:00.656Z,5.22
2022-11-26T17:37:03.057Z,5.17
2022-11-26T17:40:07.062Z,5.19
2022-11-26T17:43:09.032Z,5.24
2022-11-26T17:46:18.738Z,5.26
2022-11-26T17:49:20.615Z,5.27
2022-11-26T17:52:22.489Z,5.27
2022-11-26T17:55:24.876Z,5.26
2022-11-26T17:58:26.553Z,5.27
2022-11-26T18:01:30.079Z,5.29
2022-11-26T18:04:32.195Z,5.23
2022-11-26T18:07:34.534Z,5.25
2022-11-26T18:10:39.167Z,5.30
2022-11-26T18:13:41.520Z,5.27
2022-11-26T18:16:45.376Z,5.29
2022-11-26T18:19:47.609Z,5.29
2022-11-26T18:22:50.775Z,5.29
2022-11-26T18:25:52.731Z,5.19
2022-11-26T18:28:54.474Z,5.19
2022-11-26T18:31:58.494Z,5.10
2022-11-26T18:35:00.642Z,5.12
2022-11-26T18:38:07.341Z,5.16
2022-11-26T18:41:09.551Z,5.15
2022-11-26T18:44:11.656Z,5.11
2022-11-26T18:47:15.269Z,5.13
2022-11-26T18:50:17.549Z,5.07
2022-11-26T18:53:19.794Z,5.11
2022-11-26T18:56:22.694Z,5.11
2022-11-26T18:59:25.027Z,5.10
2022-11-26T19:02:28.919Z,5.08
2022-11-26T19:05:31.127Z,5.09
2022-11-26T19:08:33.398Z,5.04
2022-11-26T19:11:35.754Z,4.98
2022-11-26T19:14:38.126Z,4.99
2022-11-26T19:17:42.467Z,4.90
2022-11-26T19:20:48.430Z,4.86
2022-11-26T19:23:50.507Z,4.67
2022-11-26T19:26:52.811Z,4.48
2022-11-26T19:29:55.145Z,4.38
2022-11-26T19:32:58.672Z,4.18
2022-11-26T19:36:04.058Z,4.23
2022-11-26T19:39:07.127Z,4.14
2022-11-26T19:42:10.078Z,4.17
2022-11-26T19:45:13.935Z,4.17
2022-11-26T19:48:19.293Z,4.21
2022-11-26T19:51:22.489Z,4.34
2022-11-26T19:54:24.850Z,4.33
2022-11-26T19:57:27.114Z,4.39
2022-11-26T20:00:29.381Z,4.42
2022-11-26T20:03:37.410Z,4.39
2022-11-26T20:06:39.927Z,4.44
2022-11-26T20:09:42.191Z,4.40
2022-11-26T20:12:44.592Z,4.25
2022-11-26T20:15:46.600Z,4.29
2022-11-26T20:18:50.787Z,4.13
2022-11-26T20:21:52.993Z,4.11
2022-11-26T20:24:55.238Z,4.17
2022-11-26T20:27:57.863Z,4.08
2022-11-26T20:30:59.966Z,4.04
2022-11-26T20:34:05.548Z,3.95
2022-11-26T20:37:07.971Z,4.03
2022-11-26T20:40:10.579Z,3.99
2022-11-26T20:43:22.732Z,3.94
2022-11-26T20:46:25.733Z,3.93
2022-11-26T20:49:34.002Z,3.93
2022-11-26T20:52:37.392Z,3.97
2022-11-26T20:55:39.890Z,3.80
2022-11-26T20:58:42.284Z,3.82
2022-11-26T21:01:44.792Z,3.90
2022-11-26T21:04:49.281Z,3.81
2022-11-26T21:07:51.494Z,3.78
2022-11-26T21:10:53.238Z,3.61
2022-11-26T21:13:55.381Z,3.59
2022-11-26T21:16:57.158Z,3.56
2022-11-26T21:20:00.674Z,3.56
2022-11-26T21:23:02.415Z,3.57
2022-11-26T21:26:05.683Z,3.58
2022-11-26T21:29:07.293Z,3.49
2022-11-26T21:32:09.177Z,3.53
2022-11-26T21:35:13.000Z,3.51
2022-11-26T21:38:14.703Z,3.29
2022-11-26T21:41:17.739Z,3.27
2022-11-26T21:44:19.613Z,3.24
2022-11-26T21:47:21.252Z,3.22
2022-11-26T21:50:24.443Z,3.17
2022-11-26T21:53:26.388Z,3.04
2022-11-26T21:56:28.934Z,2.99
2022-11-26T21:59:30.536Z,2.89
2022-11-26T22:02:32.201Z,2.69
2022-11-26T22:05:35.261Z,2.71
2022-11-26T22:08:36.963Z,2.74
2022-11-26T22:11:39.545Z,2.81
2022-11-26T22:14:41.197Z,2.65
2022-11-26T22:17:42.816Z,2.55
2022-11-26T22:20:51.127Z,2.51
2022-11-26T22:23:53.344Z,2.49
2022-11-26T22:26:54.975Z,2.26
2022-11-26T22:29:56.617Z,2.24
2022-11-26T22:32:58.185Z,2.31
2022-11-26T22:36:01.834Z,2.40
2022-11-26T22:39:04.497Z,2.43
2022-11-26T22:42:06.151Z,2.44
2022-11-26T22:45:08.389Z,2.47
2022-11-26T22:48:11.274Z,2.14
2022-11-26T22:51:14.341Z,1.78
2022-11-26T22:54:16.460Z,1.91
2022-11-26T22:57:23.814Z,1.49
2022-11-26T23:00:49.530Z,1.15
2022-11-26T23:03:51.815Z,1.14
2022-11-26T23:06:54.841Z,1.32
2022-11-26T23:09:56.504Z,1.17
2022-11-26T23:12:58.175Z,1.06
2022-11-26T23:15:59.857Z,1.28
2022-11-26T23:19:01.878Z,1.26
2022-11-26T23:22:04.913Z,0.86
2022-11-26T23:25:07.274Z,1.03
2022-11-26T23:28:09.207Z,1.01
2022-11-26T23:31:13.024Z,0.80
2022-11-26T23:34:14.928Z,0.77
2022-11-26T23:37:17.914Z,0.79
2022-11-26T23:40:19.553Z,0.52
2022-11-26T23:43:21.356Z,0.66
2022-11-26T23:46:24.220Z,0.96
2022-11-26T23:49:25.907Z,0.96
2022-11-26T23:52:28.886Z,0.77
2022-11-26T23:55:30.555Z,0.60
2022-11-26T23:58:32.196Z,0.73
